Terminal Aerodrome Forecast
Issued by NWS

Home | Current Version | Previous Version | Graphics & Text | Print | Product List | Glossary On
Versions: 1 2 3 4 5 6 7 8 9 10 11 12 13 14 15
000
FTUS43 KFGF 031700
TAFBJI
TAF
KBJI 031720Z 0318/0418 30018G27KT 3SM HZ BKN025
     FM032100 30019G27KT P6SM SCT015 BKN035
     FM040000 29015KT P6SM SCT025 BKN040
     FM040300 27013KT P6SM SCT050=

USA.gov is the U.S. government's official web portal to all federal, state and local government web resources and services.